createdAt,value
2023-05-15T00:00:10.903Z,2.20
2023-05-15T00:00:48.248Z,1.97
2023-05-15T00:01:24.771Z,1.83
2023-05-15T00:01:57.089Z,2.00
2023-05-15T00:02:29.625Z,2.10
2023-05-15T00:03:05.014Z,1.80
2023-05-15T00:03:37.560Z,1.80
2023-05-15T00:04:10.276Z,1.90
2023-05-15T00:04:45.228Z,1.97
2023-05-15T00:05:17.581Z,1.67
2023-05-15T00:05:49.913Z,1.87
2023-05-15T00:06:25.017Z,1.93
2023-05-15T00:06:57.366Z,1.80
2023-05-15T00:07:29.706Z,1.90
2023-05-15T00:08:07.712Z,2.00
2023-05-15T00:08:40.123Z,1.73
2023-05-15T00:09:12.631Z,2.00
2023-05-15T00:09:47.871Z,2.10
2023-05-15T00:10:20.476Z,1.83
2023-05-15T00:11:00.682Z,2.17
2023-05-15T00:11:36.989Z,2.20
2023-05-15T00:12:09.875Z,2.30
2023-05-15T00:12:42.303Z,2.30
2023-05-15T00:13:14.654Z,2.50
2023-05-15T00:13:49.671Z,2.37
2023-05-15T00:14:22.145Z,2.30
2023-05-15T00:14:54.452Z,2.43
2023-05-15T00:15:26.927Z,2.20
2023-05-15T00:16:02.133Z,2.40
2023-05-15T00:16:34.571Z,2.37
2023-05-15T00:17:07.976Z,2.30
2023-05-15T00:17:43.514Z,2.20
2023-05-15T00:18:15.869Z,2.30
2023-05-15T00:18:48.287Z,2.30
2023-05-15T00:19:23.230Z,2.33
2023-05-15T00:19:57.829Z,4.67
2023-05-15T00:20:30.225Z,2.40
2023-05-15T00:21:05.345Z,2.70
2023-05-15T00:21:37.857Z,2.10
2023-05-15T00:22:10.281Z,2.23
2023-05-15T00:22:42.713Z,2.40
2023-05-15T00:23:20.231Z,2.00
2023-05-15T00:23:54.195Z,2.13
2023-05-15T00:24:26.504Z,2.07
2023-05-15T00:25:01.914Z,2.50
2023-05-15T00:25:34.223Z,2.10
2023-05-15T00:26:06.643Z,2.10
2023-05-15T00:26:41.570Z,2.20
2023-05-15T00:27:13.894Z,2.30
2023-05-15T00:27:46.361Z,2.20
2023-05-15T00:28:18.693Z,2.20
2023-05-15T00:28:53.746Z,2.10
2023-05-15T00:29:26.071Z,2.17
2023-05-15T00:29:58.442Z,1.90
2023-05-15T00:30:30.833Z,2.10
2023-05-15T00:31:05.784Z,2.40
2023-05-15T00:31:38.579Z,2.00
2023-05-15T00:32:11.094Z,2.53
2023-05-15T00:32:46.188Z,2.47
2023-05-15T00:33:18.555Z,2.07
2023-05-15T00:33:50.903Z,2.53
2023-05-15T00:34:26.062Z,2.27
2023-05-15T00:34:58.482Z,2.37
2023-05-15T00:35:30.899Z,2.30
2023-05-15T00:36:06.171Z,2.20
2023-05-15T00:36:38.519Z,2.30
2023-05-15T00:37:10.992Z,1.80
2023-05-15T00:37:47.290Z,2.47
2023-05-15T00:38:22.257Z,2.07
2023-05-15T00:38:54.582Z,2.40
2023-05-15T00:39:29.609Z,2.13
2023-05-15T00:40:01.997Z,2.27
2023-05-15T00:40:34.946Z,1.80
2023-05-15T00:41:10.192Z,1.93
2023-05-15T00:41:42.546Z,2.20
2023-05-15T00:42:15.868Z,2.10
2023-05-15T00:42:51.590Z,1.77
2023-05-15T00:43:24.361Z,2.03
2023-05-15T00:43:56.703Z,2.27
2023-05-15T00:44:29.271Z,1.90
2023-05-15T00:45:04.826Z,1.70
2023-05-15T00:45:37.365Z,1.90
2023-05-15T00:46:10.958Z,2.30
2023-05-15T00:46:46.414Z,2.00
2023-05-15T00:47:21.110Z,2.00
2023-05-15T00:47:53.817Z,1.80
2023-05-15T00:48:29.023Z,2.00
2023-05-15T00:49:03.856Z,2.87
2023-05-15T00:49:37.613Z,2.50
2023-05-15T00:50:13.612Z,2.17
2023-05-15T00:50:46.065Z,2.00
2023-05-15T00:51:18.462Z,2.03
2023-05-15T00:51:54.059Z,2.10
2023-05-15T00:52:26.703Z,2.27
2023-05-15T00:52:59.705Z,2.40
2023-05-15T00:53:38.688Z,2.07
2023-05-15T00:54:11.432Z,2.13
2023-05-15T00:54:43.824Z,2.17
2023-05-15T00:55:18.730Z,1.90
2023-05-15T00:55:51.069Z,1.83
2023-05-15T00:56:23.825Z,2.00
2023-05-15T00:57:00.609Z,1.97
2023-05-15T00:57:33.710Z,2.60
2023-05-15T00:58:06.425Z,2.20
2023-05-15T00:58:42.038Z,1.90
2023-05-15T00:59:14.360Z,2.33
2023-05-15T00:59:48.539Z,1.90
2023-05-15T01:00:23.888Z,1.70
2023-05-15T01:00:56.524Z,2.63
2023-05-15T01:01:33.628Z,2.63
2023-05-15T01:02:08.925Z,2.43
2023-05-15T01:02:41.352Z,2.23
2023-05-15T01:03:14.148Z,1.93
2023-05-15T01:03:49.606Z,2.30
2023-05-15T01:04:22.127Z,2.10
2023-05-15T01:04:54.530Z,1.83
2023-05-15T01:05:29.615Z,2.40
2023-05-15T01:06:01.975Z,2.80
2023-05-15T01:06:34.355Z,2.53
2023-05-15T01:07:09.341Z,2.10
2023-05-15T01:07:48.613Z,2.20
2023-05-15T01:08:24.302Z,2.23
2023-05-15T01:09:04.337Z,2.30
2023-05-15T01:09:37.701Z,1.97
2023-05-15T01:10:11.072Z,2.30
2023-05-15T01:10:46.275Z,2.03
2023-05-15T01:11:18.658Z,2.10
2023-05-15T01:11:54.897Z,2.57
2023-05-15T01:12:30.145Z,2.20
2023-05-15T01:13:03.203Z,2.20
2023-05-15T01:13:35.582Z,1.77
2023-05-15T01:14:10.814Z,2.43
2023-05-15T01:14:44.302Z,1.87
2023-05-15T01:15:16.785Z,2.13
2023-05-15T01:15:50.920Z,2.13
2023-05-15T01:16:25.837Z,1.90
2023-05-15T01:16:58.212Z,2.07
2023-05-15T01:17:32.216Z,2.10
2023-05-15T01:18:09.171Z,2.03
2023-05-15T01:18:41.657Z,1.97
2023-05-15T01:19:14.314Z,2.00
2023-05-15T01:19:51.155Z,2.13
2023-05-15T01:20:23.655Z,1.93
2023-05-15T01:21:11.762Z,2.30
2023-05-15T01:22:16.761Z,1.60
2023-05-15T01:22:59.480Z,1.80
2023-05-15T01:23:44.385Z,1.90
2023-05-15T01:24:34.508Z,1.93
2023-05-15T01:25:37.943Z,2.07
2023-05-15T01:26:44.985Z,2.40
2023-05-15T01:27:24.359Z,2.00
2023-05-15T01:27:59.311Z,1.80
2023-05-15T01:28:35.614Z,2.20
2023-05-15T01:29:12.228Z,1.67
2023-05-15T01:29:51.981Z,2.07
2023-05-15T01:30:31.656Z,2.07
2023-05-15T01:31:15.877Z,2.33
2023-05-15T01:31:51.124Z,1.90
2023-05-15T01:32:28.292Z,2.27
2023-05-15T01:33:04.299Z,2.20
2023-05-15T01:33:41.605Z,2.23
2023-05-15T01:34:19.105Z,1.70
2023-05-15T01:34:57.322Z,2.20
2023-05-15T01:35:33.757Z,1.90
2023-05-15T01:36:13.564Z,2.23
2023-05-15T01:36:48.610Z,2.40
2023-05-15T01:37:26.054Z,2.40
2023-05-15T01:38:15.958Z,2.07
2023-05-15T01:38:52.318Z,1.97
2023-05-15T01:39:31.151Z,1.80
2023-05-15T01:40:06.689Z,1.80
2023-05-15T01:40:41.381Z,2.30
2023-05-15T01:41:24.828Z,2.13
2023-05-15T01:42:03.172Z,2.10
2023-05-15T01:42:40.725Z,2.70
2023-05-15T01:43:19.221Z,2.20
2023-05-15T01:43:55.875Z,2.00
2023-05-15T01:44:29.629Z,2.10
2023-05-15T01:45:08.034Z,2.40
2023-05-15T01:45:41.857Z,1.93
2023-05-15T01:46:15.681Z,2.40
2023-05-15T01:46:53.558Z,1.97
2023-05-15T01:47:30.749Z,2.23
2023-05-15T01:48:07.639Z,2.00
2023-05-15T01:48:43.335Z,2.27
2023-05-15T01:49:19.403Z,2.07
2023-05-15T01:49:52.366Z,1.93
2023-05-15T01:50:27.919Z,2.23
2023-05-15T01:51:03.617Z,2.10
2023-05-15T01:51:36.956Z,2.33
2023-05-15T01:52:13.972Z,2.20
2023-05-15T01:52:49.640Z,2.20
2023-05-15T01:53:22.059Z,2.00
2023-05-15T01:53:58.674Z,2.17
2023-05-15T01:54:32.128Z,2.00
2023-05-15T01:55:06.481Z,2.53
2023-05-15T01:55:42.262Z,2.80
2023-05-15T01:56:15.895Z,2.63
2023-05-15T01:56:48.573Z,2.57
2023-05-15T01:57:24.348Z,2.60
2023-05-15T01:58:01.028Z,3.13
2023-05-15T01:58:34.099Z,3.37
2023-05-15T01:59:09.340Z,3.10
2023-05-15T01:59:42.464Z,2.90
2023-05-15T02:00:15.983Z,3.10
2023-05-15T02:00:51.110Z,3.40
2023-05-15T02:01:23.677Z,3.00
2023-05-15T02:01:57.643Z,3.30
2023-05-15T02:02:34.113Z,2.73
2023-05-15T02:03:06.704Z,3.10
2023-05-15T02:03:39.755Z,2.87
2023-05-15T02:04:15.045Z,3.03
2023-05-15T02:04:48.161Z,2.90
2023-05-15T02:05:20.885Z,3.27
2023-05-15T02:05:56.801Z,3.43
2023-05-15T02:06:29.545Z,2.83
2023-05-15T02:07:03.769Z,3.40
2023-05-15T02:07:36.128Z,3.40
2023-05-15T02:08:11.472Z,3.17
2023-05-15T02:08:44.093Z,3.30
2023-05-15T02:09:16.818Z,3.13
2023-05-15T02:09:52.489Z,3.33
2023-05-15T02:10:25.563Z,2.87
2023-05-15T02:11:00.934Z,3.40
2023-05-15T02:11:36.243Z,3.50
2023-05-15T02:12:09.089Z,2.30
2023-05-15T02:12:41.952Z,2.93
2023-05-15T02:13:20.132Z,3.23
2023-05-15T02:13:52.748Z,3.27
2023-05-15T02:14:25.577Z,3.20
2023-05-15T02:15:01.418Z,3.30
2023-05-15T02:15:34.113Z,3.57
2023-05-15T02:16:07.162Z,3.00
2023-05-15T02:16:42.454Z,2.90
2023-05-15T02:17:15.440Z,3.07
2023-05-15T02:17:47.896Z,3.23
2023-05-15T02:18:22.898Z,3.00
2023-05-15T02:18:55.375Z,3.40
2023-05-15T02:19:27.850Z,3.20
2023-05-15T02:20:02.853Z,2.97
2023-05-15T02:20:35.977Z,2.70
2023-05-15T02:21:08.747Z,3.00
2023-05-15T02:21:44.556Z,3.03
2023-05-15T02:22:18.481Z,3.30
2023-05-15T02:22:50.798Z,3.57
2023-05-15T02:23:25.818Z,3.20
2023-05-15T02:23:58.125Z,2.97
2023-05-15T02:24:30.540Z,3.30
2023-05-15T02:25:05.518Z,2.60
2023-05-15T02:25:44.812Z,2.97
2023-05-15T02:26:27.228Z,2.77
2023-05-15T02:27:08.261Z,3.10
2023-05-15T02:27:47.712Z,2.80
2023-05-15T02:28:34.004Z,2.90
2023-05-15T02:29:13.912Z,2.67
2023-05-15T02:29:55.948Z,3.20
2023-05-15T02:30:38.433Z,2.70
2023-05-15T02:31:16.856Z,2.87
2023-05-15T02:31:56.075Z,2.97
2023-05-15T02:32:33.440Z,2.97
2023-05-15T02:33:15.592Z,2.80
2023-05-15T02:33:53.912Z,2.67
2023-05-15T02:34:33.753Z,2.70
2023-05-15T02:35:14.951Z,3.13
2023-05-15T02:35:49.594Z,2.63
2023-05-15T02:36:28.107Z,3.20
2023-05-15T02:37:01.466Z,2.90
2023-05-15T02:37:36.210Z,2.80
2023-05-15T02:38:13.615Z,2.90
2023-05-15T02:38:48.417Z,2.90
2023-05-15T02:39:25.293Z,2.80
2023-05-15T02:39:59.918Z,2.90
2023-05-15T02:40:33.139Z,2.70
2023-05-15T02:41:09.144Z,3.40
2023-05-15T02:41:41.555Z,2.80
2023-05-15T02:42:14.829Z,3.10
2023-05-15T02:42:50.410Z,3.77
2023-05-15T02:43:25.635Z,2.90
2023-05-15T02:43:59.630Z,2.83
2023-05-15T02:44:34.929Z,2.60
2023-05-15T02:45:10.653Z,3.10
2023-05-15T02:45:43.542Z,2.80
2023-05-15T02:46:18.855Z,3.30
2023-05-15T02:46:51.466Z,2.90
2023-05-15T02:47:24.365Z,3.27
2023-05-15T02:47:59.536Z,3.10
2023-05-15T02:48:32.194Z,3.20
2023-05-15T02:49:04.609Z,2.87
2023-05-15T02:49:39.951Z,3.00
2023-05-15T02:50:12.480Z,2.70
2023-05-15T02:50:44.931Z,3.17
2023-05-15T02:51:19.863Z,3.20
2023-05-15T02:51:52.197Z,3.17
2023-05-15T02:52:24.593Z,3.67
2023-05-15T02:53:05.411Z,3.10
2023-05-15T02:53:40.076Z,3.10
2023-05-15T02:54:12.431Z,3.63
2023-05-15T02:54:47.376Z,3.60
2023-05-15T02:55:19.760Z,3.57
2023-05-15T02:55:52.144Z,3.10
2023-05-15T02:56:27.170Z,3.03
2023-05-15T02:56:59.535Z,2.93
2023-05-15T02:57:31.861Z,3.10
2023-05-15T02:58:07.237Z,2.67
2023-05-15T02:58:42.237Z,3.20
2023-05-15T02:59:18.956Z,3.77
2023-05-15T02:59:56.269Z,3.40
2023-05-15T03:00:28.696Z,3.27
2023-05-15T03:01:01.130Z,3.10
2023-05-15T03:01:36.120Z,3.10
2023-05-15T03:02:08.485Z,2.83
2023-05-15T03:02:40.892Z,3.33
2023-05-15T03:03:15.850Z,3.07
2023-05-15T03:03:48.307Z,3.10
2023-05-15T03:04:24.036Z,3.23
2023-05-15T03:04:56.397Z,2.73
2023-05-15T03:05:28.913Z,3.40
2023-05-15T03:06:04.041Z,3.50
2023-05-15T03:06:36.537Z,3.20
2023-05-15T03:07:08.859Z,3.10
2023-05-15T03:07:44.501Z,3.13
2023-05-15T03:08:16.863Z,3.70
2023-05-15T03:08:49.392Z,3.10
2023-05-15T03:09:25.594Z,3.53
2023-05-15T03:09:57.924Z,3.00
2023-05-15T03:10:32.829Z,3.60
2023-05-15T03:11:05.533Z,2.80
2023-05-15T03:11:37.967Z,3.33
2023-05-15T03:12:13.456Z,3.40
2023-05-15T03:12:45.791Z,3.10
2023-05-15T03:13:18.146Z,3.87
2023-05-15T03:13:55.637Z,3.50
2023-05-15T03:14:27.960Z,3.00
2023-05-15T03:15:00.400Z,3.73
2023-05-15T03:15:35.315Z,3.43
2023-05-15T03:16:07.895Z,3.30
2023-05-15T03:16:40.253Z,3.53
2023-05-15T03:17:15.197Z,3.30
2023-05-15T03:17:47.726Z,3.27
2023-05-15T03:18:20.151Z,3.40
2023-05-15T03:18:55.273Z,3.10
2023-05-15T03:19:27.687Z,3.60
2023-05-15T03:20:00.064Z,3.40
2023-05-15T03:20:34.996Z,3.40
2023-05-15T03:21:07.373Z,3.57
2023-05-15T03:21:39.749Z,3.20
2023-05-15T03:22:14.664Z,2.90
2023-05-15T03:22:47.035Z,3.07
2023-05-15T03:23:19.424Z,3.00
2023-05-15T03:23:54.351Z,2.87
2023-05-15T03:24:26.728Z,3.20
2023-05-15T03:24:59.346Z,3.17
2023-05-15T03:25:34.334Z,2.67
2023-05-15T03:26:06.721Z,2.90
2023-05-15T03:26:40.674Z,3.53
2023-05-15T03:27:15.627Z,3.00
2023-05-15T03:27:47.959Z,3.40
2023-05-15T03:28:20.267Z,2.87
2023-05-15T03:28:58.430Z,3.10
2023-05-15T03:29:30.803Z,3.13
2023-05-15T03:30:03.221Z,3.50
2023-05-15T03:30:38.375Z,2.90
2023-05-15T03:31:10.832Z,2.93
2023-05-15T03:31:43.328Z,2.80
2023-05-15T03:32:15.828Z,2.80
2023-05-15T03:32:50.893Z,2.97
2023-05-15T03:33:23.241Z,2.90
2023-05-15T03:33:55.570Z,2.67
2023-05-15T03:34:30.503Z,3.20
2023-05-15T03:35:02.981Z,3.10
2023-05-15T03:35:35.903Z,2.70
2023-05-15T03:36:11.234Z,3.20
2023-05-15T03:36:43.589Z,2.97
2023-05-15T03:37:16.427Z,3.70
2023-05-15T03:37:51.352Z,3.37
2023-05-15T03:38:23.781Z,3.20
2023-05-15T03:38:56.117Z,3.60
2023-05-15T03:39:31.141Z,3.53
2023-05-15T03:40:03.644Z,3.87
2023-05-15T03:40:35.961Z,4.03
2023-05-15T03:41:11.703Z,3.93
2023-05-15T03:41:44.046Z,4.17
2023-05-15T03:42:22.666Z,4.10
2023-05-15T03:42:58.500Z,4.53
2023-05-15T03:43:30.858Z,4.23
2023-05-15T03:44:06.146Z,4.43
2023-05-15T03:44:41.425Z,4.30
2023-05-15T03:45:13.807Z,4.13
2023-05-15T03:45:46.172Z,4.70
2023-05-15T03:46:21.450Z,4.90
2023-05-15T03:46:53.902Z,4.30
2023-05-15T03:47:26.381Z,4.37
2023-05-15T03:48:01.464Z,4.37
2023-05-15T03:48:33.939Z,4.80
2023-05-15T03:49:12.899Z,4.10
2023-05-15T03:49:46.762Z,5.40
2023-05-15T03:50:19.148Z,4.73
2023-05-15T03:50:54.408Z,4.60
2023-05-15T03:51:26.808Z,4.50
2023-05-15T03:51:59.337Z,5.10
2023-05-15T03:52:31.800Z,4.93
2023-05-15T03:53:07.574Z,4.40
2023-05-15T03:53:39.963Z,4.40
2023-05-15T03:54:12.338Z,4.80
2023-05-15T03:54:47.330Z,4.87
2023-05-15T03:55:19.856Z,4.90
2023-05-15T03:55:52.208Z,5.17
2023-05-15T03:56:27.610Z,5.13
2023-05-15T03:57:00.119Z,5.13
2023-05-15T03:57:33.463Z,4.90
2023-05-15T03:58:08.374Z,5.33
2023-05-15T03:58:41.578Z,4.60
2023-05-15T03:59:16.502Z,5.37
2023-05-15T03:59:51.422Z,5.43
2023-05-15T04:00:24.068Z,5.20
2023-05-15T04:00:56.587Z,5.17
2023-05-15T04:01:31.582Z,4.90
2023-05-15T04:02:05.643Z,5.00
2023-05-15T04:02:38.703Z,5.10
2023-05-15T04:03:13.759Z,5.90
2023-05-15T04:03:46.182Z,5.50
2023-05-15T04:04:18.475Z,5.87
2023-05-15T04:04:54.022Z,5.80
2023-05-15T04:05:26.589Z,5.60
2023-05-15T04:05:59.257Z,6.27
2023-05-15T04:06:34.207Z,6.00
2023-05-15T04:07:07.038Z,6.13
2023-05-15T04:07:39.461Z,5.70
2023-05-15T04:08:14.484Z,5.77
2023-05-15T04:08:46.792Z,6.23
2023-05-15T04:09:19.123Z,6.47
2023-05-15T04:09:54.053Z,6.03
2023-05-15T04:10:26.508Z,6.27
2023-05-15T04:10:58.901Z,6.37
2023-05-15T04:11:35.003Z,5.60
2023-05-15T04:12:07.718Z,6.70
2023-05-15T04:12:40.070Z,5.90
2023-05-15T04:13:15.029Z,6.60
2023-05-15T04:13:47.342Z,6.50
2023-05-15T04:14:22.285Z,5.90
2023-05-15T04:14:57.194Z,6.30
2023-05-15T04:15:29.973Z,6.10
2023-05-15T04:16:02.693Z,6.40
2023-05-15T04:16:37.756Z,5.80
2023-05-15T04:17:10.122Z,6.20
2023-05-15T04:17:42.514Z,6.23
2023-05-15T04:18:17.579Z,7.20
2023-05-15T04:18:49.956Z,6.20
2023-05-15T04:19:22.448Z,6.53
2023-05-15T04:19:57.386Z,5.97
2023-05-15T04:20:29.685Z,5.90
2023-05-15T04:21:02.011Z,6.87
2023-05-15T04:21:36.907Z,5.73
2023-05-15T04:22:09.244Z,5.37
2023-05-15T04:22:41.743Z,5.80
2023-05-15T04:23:16.723Z,6.17
2023-05-15T04:23:49.045Z,7.10
2023-05-15T04:24:21.491Z,6.07
2023-05-15T04:24:56.434Z,5.30
2023-05-15T04:25:28.753Z,5.87
2023-05-15T04:26:01.666Z,5.73
2023-05-15T04:26:36.968Z,6.33
2023-05-15T04:27:09.536Z,6.00
2023-05-15T04:27:43.061Z,6.57
2023-05-15T04:28:20.140Z,6.53
2023-05-15T04:29:02.984Z,6.73
2023-05-15T04:29:39.147Z,6.27
2023-05-15T04:30:15.138Z,6.80
2023-05-15T04:30:47.497Z,6.13
2023-05-15T04:31:19.917Z,6.10
2023-05-15T04:31:54.906Z,6.30
2023-05-15T04:32:27.893Z,6.00
2023-05-15T04:33:00.277Z,6.10
2023-05-15T04:33:35.245Z,6.27
2023-05-15T04:34:07.544Z,5.70
2023-05-15T04:34:41.159Z,6.50
2023-05-15T04:35:16.208Z,5.97
2023-05-15T04:35:48.517Z,5.93
2023-05-15T04:36:21.868Z,6.50
2023-05-15T04:36:57.017Z,6.90
2023-05-15T04:37:29.500Z,6.03
2023-05-15T04:38:02.407Z,6.60
2023-05-15T04:38:37.523Z,6.00
2023-05-15T04:39:10.122Z,6.50
2023-05-15T04:39:42.435Z,6.40
2023-05-15T04:40:18.181Z,6.60
2023-05-15T04:40:50.522Z,6.43
2023-05-15T04:41:23.069Z,6.50
2023-05-15T04:41:58.000Z,6.00
2023-05-15T04:42:30.401Z,6.93
2023-05-15T04:43:04.249Z,5.97
2023-05-15T04:43:39.950Z,6.47
2023-05-15T04:44:13.472Z,6.40
2023-05-15T04:44:48.420Z,5.87
2023-05-15T04:45:25.200Z,6.97
2023-05-15T04:45:57.726Z,6.00
2023-05-15T04:46:30.140Z,6.47
2023-05-15T04:47:05.216Z,6.27
2023-05-15T04:47:37.825Z,6.17
2023-05-15T04:48:12.906Z,6.30
2023-05-15T04:48:45.217Z,6.10
2023-05-15T04:49:17.520Z,6.43
2023-05-15T04:49:52.422Z,6.90
2023-05-15T04:50:25.264Z,6.30
2023-05-15T04:50:58.831Z,5.87
2023-05-15T04:51:33.748Z,6.20
2023-05-15T04:52:06.073Z,6.10
2023-05-15T04:52:38.411Z,7.07
2023-05-15T04:53:13.357Z,6.47
2023-05-15T04:53:45.705Z,6.70
2023-05-15T04:54:18.017Z,6.17
2023-05-15T04:54:53.511Z,7.00
2023-05-15T04:55:25.955Z,6.67
2023-05-15T04:55:58.553Z,6.10
2023-05-15T04:56:33.509Z,7.03
2023-05-15T04:57:06.885Z,7.10
2023-05-15T04:57:39.191Z,6.33
2023-05-15T04:58:14.137Z,7.10
2023-05-15T04:58:46.509Z,6.50
2023-05-15T04:59:18.830Z,6.20
2023-05-15T04:59:56.434Z,6.30
2023-05-15T05:00:28.953Z,6.37
2023-05-15T05:01:04.299Z,7.03
2023-05-15T05:01:37.566Z,6.10
2023-05-15T05:02:10.273Z,5.80
2023-05-15T05:02:45.978Z,6.07
2023-05-15T05:03:18.410Z,5.73
2023-05-15T05:03:50.770Z,6.30
2023-05-15T05:04:25.858Z,6.00
2023-05-15T05:04:58.152Z,5.77
2023-05-15T05:05:33.107Z,6.13
2023-05-15T05:06:05.813Z,8.40
2023-05-15T05:06:40.760Z,6.40
2023-05-15T05:07:13.072Z,6.37
2023-05-15T05:07:46.563Z,7.17
2023-05-15T05:08:21.534Z,7.03
2023-05-15T05:08:53.866Z,6.50
2023-05-15T05:09:26.162Z,6.80
2023-05-15T05:09:58.462Z,6.60
2023-05-15T05:10:33.415Z,6.53
2023-05-15T05:11:05.902Z,5.30
2023-05-15T05:11:39.568Z,6.00
2023-05-15T05:12:14.722Z,5.40
2023-05-15T05:12:47.047Z,5.43
2023-05-15T05:13:20.366Z,6.37
2023-05-15T05:13:55.305Z,5.90
2023-05-15T05:14:27.878Z,5.10
2023-05-15T05:15:02.787Z,5.70
2023-05-15T05:15:37.869Z,5.80
2023-05-15T05:16:10.322Z,6.03
2023-05-15T05:16:42.783Z,6.10
2023-05-15T05:17:17.816Z,5.17
2023-05-15T05:17:50.278Z,5.83
2023-05-15T05:18:25.233Z,5.57
2023-05-15T05:18:57.579Z,5.50
2023-05-15T05:19:30.015Z,6.30
2023-05-15T05:20:05.035Z,5.97
2023-05-15T05:20:37.483Z,5.60
2023-05-15T05:21:09.999Z,5.70
2023-05-15T05:21:44.915Z,5.80
2023-05-15T05:22:17.223Z,5.80
2023-05-15T05:22:52.170Z,5.90
2023-05-15T05:23:24.513Z,6.20
2023-05-15T05:23:56.845Z,5.80
2023-05-15T05:24:29.894Z,6.27
2023-05-15T05:25:04.806Z,6.27
2023-05-15T05:25:37.112Z,6.00
2023-05-15T05:26:09.417Z,5.90
2023-05-15T05:26:46.921Z,5.83
2023-05-15T05:27:19.271Z,5.50
2023-05-15T05:27:52.158Z,6.30
2023-05-15T05:28:27.100Z,6.53
2023-05-15T05:28:59.440Z,6.00
2023-05-15T05:29:31.899Z,5.80
2023-05-15T05:30:10.966Z,5.20
2023-05-15T05:30:45.341Z,5.80
2023-05-15T05:31:17.738Z,6.60
2023-05-15T05:31:53.050Z,5.90
2023-05-15T05:32:25.613Z,5.53
2023-05-15T05:32:58.020Z,6.03
2023-05-15T05:33:32.998Z,6.13
2023-05-15T05:34:05.329Z,5.27
2023-05-15T05:34:37.640Z,6.10
2023-05-15T05:35:12.736Z,5.60
2023-05-15T05:35:45.051Z,6.47
2023-05-15T05:36:17.363Z,5.80
2023-05-15T05:36:52.613Z,5.87
2023-05-15T05:37:24.920Z,5.57
2023-05-15T05:37:57.207Z,6.27
2023-05-15T05:38:32.581Z,5.40
2023-05-15T05:39:05.027Z,5.37
2023-05-15T05:39:37.340Z,5.47
2023-05-15T05:40:13.572Z,5.87
2023-05-15T05:40:45.912Z,6.20
2023-05-15T05:41:18.233Z,6.00
2023-05-15T05:41:53.193Z,6.10
2023-05-15T05:42:25.588Z,5.80
2023-05-15T05:43:00.696Z,6.17
2023-05-15T05:43:35.652Z,6.50
2023-05-15T05:44:07.974Z,6.03
2023-05-15T05:44:42.912Z,5.70
2023-05-15T05:45:18.189Z,6.00
2023-05-15T05:45:53.126Z,6.00
2023-05-15T05:46:26.566Z,6.03
2023-05-15T05:46:58.959Z,6.23
2023-05-15T05:47:34.002Z,5.90
2023-05-15T05:48:06.713Z,6.90
2023-05-15T05:48:39.193Z,5.87
2023-05-15T05:49:14.148Z,6.47
2023-05-15T05:49:48.323Z,5.80
2023-05-15T05:50:20.937Z,5.73
2023-05-15T05:50:55.952Z,6.17
2023-05-15T05:51:28.269Z,6.20
2023-05-15T05:52:07.007Z,5.53
2023-05-15T05:52:41.917Z,5.90
2023-05-15T05:53:14.270Z,5.77
2023-05-15T05:53:46.606Z,6.10
2023-05-15T05:54:19.192Z,5.77
2023-05-15T05:54:54.099Z,6.63
2023-05-15T05:55:26.799Z,6.50
2023-05-15T05:56:02.016Z,5.97
2023-05-15T05:56:34.367Z,5.63
2023-05-15T05:57:07.830Z,5.23
2023-05-15T05:57:42.757Z,6.10
2023-05-15T05:58:24.978Z,6.30
2023-05-15T05:59:02.246Z,5.60
2023-05-15T05:59:34.747Z,5.57
2023-05-15T06:00:10.733Z,5.73
2023-05-15T06:00:49.373Z,5.80
2023-05-15T06:01:21.801Z,6.37
2023-05-15T06:01:54.294Z,6.07
2023-05-15T06:02:29.400Z,5.87
2023-05-15T06:03:02.191Z,6.10
2023-05-15T06:03:34.791Z,5.20
2023-05-15T06:04:10.118Z,5.40
2023-05-15T06:04:42.475Z,5.90
2023-05-15T06:05:14.812Z,5.53
2023-05-15T06:05:49.754Z,5.03
2023-05-15T06:06:22.666Z,5.40
2023-05-15T06:06:57.972Z,5.60
2023-05-15T06:07:30.345Z,5.90
2023-05-15T06:08:04.433Z,5.20
2023-05-15T06:08:39.328Z,5.67
2023-05-15T06:09:11.675Z,5.43
2023-05-15T06:09:46.047Z,5.30
2023-05-15T06:10:21.249Z,5.63
2023-05-15T06:10:53.546Z,5.97
2023-05-15T06:11:28.826Z,5.10
2023-05-15T06:12:04.748Z,6.20
2023-05-15T06:12:39.858Z,5.90
2023-05-15T06:13:12.816Z,5.67
2023-05-15T06:13:45.134Z,5.63
2023-05-15T06:14:21.187Z,6.30
2023-05-15T06:14:53.668Z,6.47
2023-05-15T06:15:26.533Z,4.90
2023-05-15T06:16:04.159Z,5.90
2023-05-15T06:16:36.517Z,5.53
2023-05-15T06:17:11.519Z,5.63
2023-05-15T06:17:43.872Z,5.73
2023-05-15T06:18:16.268Z,6.17
2023-05-15T06:18:51.323Z,5.97
2023-05-15T06:19:23.701Z,6.00
2023-05-15T06:19:56.036Z,5.53
2023-05-15T06:20:30.947Z,5.73
2023-05-15T06:21:03.577Z,6.67
2023-05-15T06:21:35.936Z,5.83
2023-05-15T06:22:11.096Z,6.13
2023-05-15T06:22:43.408Z,6.00
2023-05-15T06:23:15.755Z,6.00
2023-05-15T06:23:50.651Z,5.37
2023-05-15T06:24:22.960Z,5.73
2023-05-15T06:24:55.285Z,5.43
2023-05-15T06:25:30.208Z,5.40
2023-05-15T06:26:02.737Z,5.33
2023-05-15T06:26:37.719Z,5.70
2023-05-15T06:27:10.054Z,5.70
2023-05-15T06:27:42.603Z,5.70
2023-05-15T06:28:17.555Z,6.20
2023-05-15T06:28:49.888Z,6.53
2023-05-15T06:29:22.244Z,6.50
2023-05-15T06:29:57.180Z,6.20
2023-05-15T06:30:29.563Z,5.67
2023-05-15T06:31:04.940Z,6.07
2023-05-15T06:31:39.938Z,5.73
2023-05-15T06:32:12.349Z,5.93
2023-05-15T06:32:44.722Z,6.33
2023-05-15T06:33:19.931Z,6.17
2023-05-15T06:33:52.286Z,5.87
2023-05-15T06:34:24.724Z,5.80
2023-05-15T06:34:59.944Z,6.00
2023-05-15T06:35:32.283Z,5.93
2023-05-15T06:36:07.617Z,6.50
2023-05-15T06:36:39.926Z,6.10
2023-05-15T06:37:12.313Z,5.93
2023-05-15T06:37:50.392Z,5.90
2023-05-15T06:38:22.697Z,6.13
2023-05-15T06:38:57.598Z,6.00
2023-05-15T06:39:29.968Z,6.50
2023-05-15T06:40:02.335Z,6.17
2023-05-15T06:40:37.285Z,5.30
2023-05-15T06:41:09.584Z,6.20
2023-05-15T06:41:41.879Z,6.27
2023-05-15T06:42:20.606Z,6.10
2023-05-15T06:42:52.952Z,6.47
2023-05-15T06:43:27.846Z,6.40
2023-05-15T06:44:00.166Z,5.93
2023-05-15T06:44:35.097Z,7.00
2023-05-15T06:45:08.960Z,5.63
2023-05-15T06:45:41.338Z,6.20
2023-05-15T06:46:19.395Z,5.90
2023-05-15T06:46:51.937Z,5.93
2023-05-15T06:47:27.092Z,6.57
2023-05-15T06:48:01.655Z,6.20
2023-05-15T06:48:37.025Z,6.50
2023-05-15T06:49:09.329Z,6.73
2023-05-15T06:49:41.649Z,6.10
2023-05-15T06:50:16.571Z,6.90
2023-05-15T06:50:48.884Z,6.10
2023-05-15T06:51:21.242Z,6.00
2023-05-15T06:51:56.267Z,6.10
2023-05-15T06:52:28.684Z,6.30
2023-05-15T06:53:03.597Z,6.43
2023-05-15T06:53:35.911Z,5.77
2023-05-15T06:54:08.347Z,6.20
2023-05-15T06:54:43.519Z,6.47
2023-05-15T06:55:15.844Z,7.10
2023-05-15T06:55:50.767Z,6.50
2023-05-15T06:56:23.129Z,6.03
2023-05-15T06:56:55.433Z,5.90
2023-05-15T06:57:30.363Z,6.13
2023-05-15T06:58:02.799Z,6.13
2023-05-15T06:58:35.165Z,6.90
2023-05-15T06:59:10.130Z,6.90
2023-05-15T06:59:42.493Z,6.20
2023-05-15T07:00:16.320Z,6.30
2023-05-15T07:00:52.554Z,6.60
2023-05-15T07:01:29.027Z,6.37
2023-05-15T07:02:04.282Z,5.70
2023-05-15T07:02:36.643Z,6.10
2023-05-15T07:03:11.658Z,6.17
2023-05-15T07:03:43.986Z,6.17
2023-05-15T07:04:16.718Z,6.47
2023-05-15T07:04:51.862Z,6.70
2023-05-15T07:05:24.369Z,6.50
2023-05-15T07:05:56.801Z,5.93
2023-05-15T07:06:32.169Z,6.10
2023-05-15T07:07:04.693Z,5.20
2023-05-15T07:07:37.141Z,6.50
2023-05-15T07:08:12.041Z,6.30
2023-05-15T07:08:44.396Z,6.23
2023-05-15T07:09:19.292Z,6.50
2023-05-15T07:09:51.660Z,6.27
2023-05-15T07:10:24.168Z,6.07
2023-05-15T07:10:59.188Z,6.27
2023-05-15T07:11:33.644Z,5.77
2023-05-15T07:12:06.534Z,5.70
2023-05-15T07:12:41.669Z,6.97
2023-05-15T07:13:14.019Z,5.63
2023-05-15T07:13:49.800Z,6.27
2023-05-15T07:14:22.959Z,6.10
2023-05-15T07:14:55.318Z,5.80
2023-05-15T07:15:30.271Z,6.00
2023-05-15T07:16:03.275Z,5.70
2023-05-15T07:16:38.261Z,5.70
2023-05-15T07:17:13.225Z,5.90
2023-05-15T07:17:45.739Z,6.90
2023-05-15T07:18:18.519Z,6.07
2023-05-15T07:18:53.586Z,6.23
2023-05-15T07:19:26.309Z,5.97
2023-05-15T07:19:58.684Z,6.00
2023-05-15T07:20:35.134Z,5.57
2023-05-15T07:21:07.705Z,6.10
2023-05-15T07:21:40.374Z,5.63
2023-05-15T07:22:15.323Z,5.87
2023-05-15T07:22:55.613Z,5.47
2023-05-15T07:23:31.487Z,6.10
2023-05-15T07:24:04.092Z,6.10
2023-05-15T07:24:38.257Z,6.37
2023-05-15T07:25:16.299Z,6.30
2023-05-15T07:25:49.328Z,5.77
2023-05-15T07:26:34.459Z,6.00
2023-05-15T07:27:08.813Z,5.60
2023-05-15T07:27:43.701Z,5.80
2023-05-15T07:28:16.043Z,5.23
2023-05-15T07:28:48.407Z,6.13
2023-05-15T07:29:23.387Z,5.73
2023-05-15T07:29:55.706Z,5.47
2023-05-15T07:30:28.200Z,6.53
2023-05-15T07:31:03.468Z,6.63
2023-05-15T07:31:40.719Z,6.27
2023-05-15T07:32:15.814Z,6.17
2023-05-15T07:32:48.201Z,9.43
2023-05-15T07:33:20.517Z,9.57
2023-05-15T07:33:55.491Z,8.10
2023-05-15T07:34:27.802Z,7.17
2023-05-15T07:35:04.575Z,7.30
2023-05-15T07:35:36.924Z,6.63
2023-05-15T07:36:12.213Z,5.47
2023-05-15T07:36:44.602Z,5.33